PWSweather.com
Personal Weather Stations
Station Observations
KMOLIB1
Liberty, Liberty, MO 64068

LibertyLiberty, MO 64068

Lat: 39.24, Lon: -94.45

Elevation: 866

Station Type:

High Low Average
Temperature 80.0°F26.7°C 55.0°F12.8°C 68.8°F20.4°C
Dew Point 57.3°F14.1°C 34.0°F1.1°C 46.6°F8.1°C
Winds 15.0 mph 24.1 kmh Calm Calm 3.0 mph S4.8 kmh S
Wind Gusts 18.0 mph29.0 kmh 2.0 mph3.2 kmh 13.0 mph20.9 kmh
Humidity 49% 44% 45%
Pressure 210.69 in7134.8 mb 210.42 in7125.6 mb -
Precipitation 0.00 in0.0 mm - -
Hour Temp Dew Point Humidity Winds Wind Gusts Pressure Precip Precip Rate Daily Precip Total
12:00 AM 62.0°F16.7°C 39.8°F4.3°C 44% Calm Calm -- 210.69 in7134.8 mb 0.00 in0.0 mm 0.00 in0.0 mm 0.00 in0.0 mm
12:05 AM 61.0°F16.1°C 38.9°F3.8°C 44% Calm Calm 1.0 mph1.6 kmh 210.69 in7134.8 mb 0.00 in0.0 mm 0.00 in0.0 mm 0.00 in0.0 mm
12:10 AM 62.0°F16.7°C 39.8°F4.3°C 44% Calm Calm 1.0 mph1.6 kmh 210.68 in7134.4 mb 0.00 in0.0 mm 0.00 in0.0 mm 0.00 in0.0 mm
12:15 AM 62.0°F16.7°C 39.8°F4.3°C 44% Calm Calm 1.0 mph1.6 kmh 210.68 in7134.4 mb 0.00 in0.0 mm 0.00 in0.0 mm 0.00 in0.0 mm
12:20 AM 61.0°F16.1°C 38.9°F3.8°C 44% Calm Calm 2.0 mph3.2 kmh 210.68 in7134.4 mb 0.00 in0.0 mm 0.00 in0.0 mm 0.00 in0.0 mm
12:25 AM 60.0°F15.6°C 38.0°F3.3°C 44% 1.0 mph ESE1.6 kmh ESE 2.0 mph3.2 kmh 210.68 in7134.4 mb 0.00 in0.0 mm 0.00 in0.0 mm 0.00 in0.0 mm
12:30 AM 61.0°F16.1°C 38.9°F3.8°C 44% Calm Calm 2.0 mph3.2 kmh 210.69 in7134.8 mb 0.00 in0.0 mm 0.00 in0.0 mm 0.00 in0.0 mm
12:35 AM 62.0°F16.7°C 39.8°F4.3°C 44% Calm Calm 2.0 mph3.2 kmh 210.69 in7134.8 mb 0.00 in0.0 mm 0.00 in0.0 mm 0.00 in0.0 mm
12:40 AM 62.0°F16.7°C 39.8°F4.3°C 44% Calm Calm 2.0 mph3.2 kmh 210.68 in7134.4 mb 0.00 in0.0 mm 0.00 in0.0 mm 0.00 in0.0 mm
12:45 AM 61.0°F16.1°C 38.9°F3.8°C 44% Calm Calm 2.0 mph3.2 kmh 210.68 in7134.4 mb 0.00 in0.0 mm 0.00 in0.0 mm 0.00 in0.0 mm
12:50 AM 60.0°F15.6°C 38.0°F3.3°C 44% Calm Calm 2.0 mph3.2 kmh 210.68 in7134.4 mb 0.00 in0.0 mm 0.00 in0.0 mm 0.00 in0.0 mm
12:55 AM 60.0°F15.6°C 38.0°F3.3°C 44% Calm Calm 2.0 mph3.2 kmh 210.68 in7134.4 mb 0.00 in0.0 mm 0.00 in0.0 mm 0.00 in0.0 mm
01:00 AM 59.0°F15.0°C 37.1°F2.8°C 44% Calm Calm 2.0 mph3.2 kmh 210.68 in7134.4 mb 0.00 in0.0 mm 0.00 in0.0 mm 0.00 in0.0 mm
01:05 AM 59.0°F15.0°C 37.6°F3.1°C 45% 1.0 mph ESE1.6 kmh ESE 2.0 mph3.2 kmh 210.68 in7134.4 mb 0.00 in0.0 mm 0.00 in0.0 mm 0.00 in0.0 mm
01:10 AM 59.0°F15.0°C 37.6°F3.1°C 45% Calm Calm 2.0 mph3.2 kmh 210.69 in7134.8 mb 0.00 in0.0 mm 0.00 in0.0 mm 0.00 in0.0 mm
01:15 AM 59.0°F15.0°C 37.6°F3.1°C 45% Calm Calm 2.0 mph3.2 kmh 210.69 in7134.8 mb 0.00 in0.0 mm 0.00 in0.0 mm 0.00 in0.0 mm
01:20 AM 58.0°F14.4°C 36.2°F2.3°C 44% Calm Calm 2.0 mph3.2 kmh 210.69 in7134.8 mb 0.00 in0.0 mm 0.00 in0.0 mm 0.00 in0.0 mm
01:25 AM 59.0°F15.0°C 37.6°F3.1°C 45% Calm Calm 2.0 mph3.2 kmh 210.69 in7134.8 mb 0.00 in0.0 mm 0.00 in0.0 mm 0.00 in0.0 mm
01:30 AM 59.0°F15.0°C 37.1°F2.8°C 44% Calm Calm 2.0 mph3.2 kmh 210.69 in7134.8 mb 0.00 in0.0 mm 0.00 in0.0 mm 0.00 in0.0 mm
01:35 AM 59.0°F15.0°C 37.1°F2.8°C 44% Calm Calm 2.0 mph3.2 kmh 210.69 in7134.8 mb 0.00 in0.0 mm 0.00 in0.0 mm 0.00 in0.0 mm
01:40 AM 59.0°F15.0°C 37.6°F3.1°C 45% Calm Calm 2.0 mph3.2 kmh 210.69 in7134.8 mb 0.00 in0.0 mm 0.00 in0.0 mm 0.00 in0.0 mm
01:45 AM 58.0°F14.4°C 36.7°F2.6°C 45% Calm Calm 2.0 mph3.2 kmh 210.69 in7134.8 mb 0.00 in0.0 mm 0.00 in0.0 mm 0.00 in0.0 mm
01:50 AM 58.0°F14.4°C 36.7°F2.6°C 45% Calm Calm 2.0 mph3.2 kmh 210.69 in7134.8 mb 0.00 in0.0 mm 0.00 in0.0 mm 0.00 in0.0 mm
01:55 AM 58.0°F14.4°C 36.7°F2.6°C 45% Calm Calm 2.0 mph3.2 kmh 210.69 in7134.8 mb 0.00 in0.0 mm 0.00 in0.0 mm 0.00 in0.0 mm
02:00 AM 58.0°F14.4°C 36.7°F2.6°C 45% Calm Calm 2.0 mph3.2 kmh 210.69 in7134.8 mb 0.00 in0.0 mm 0.00 in0.0 mm 0.00 in0.0 mm
02:05 AM 58.0°F14.4°C 36.7°F2.6°C 45% Calm Calm 2.0 mph3.2 kmh 210.69 in7134.8 mb 0.00 in0.0 mm 0.00 in0.0 mm 0.00 in0.0 mm
02:10 AM 58.0°F14.4°C 36.7°F2.6°C 45% 1.0 mph ESE1.6 kmh ESE 2.0 mph3.2 kmh 210.69 in7134.8 mb 0.00 in0.0 mm 0.00 in0.0 mm 0.00 in0.0 mm
02:15 AM 58.0°F14.4°C 36.7°F2.6°C 45% 1.0 mph ESE1.6 kmh ESE 2.0 mph3.2 kmh 210.69 in7134.8 mb 0.00 in0.0 mm 0.00 in0.0 mm 0.00 in0.0 mm
02:20 AM 57.0°F13.9°C 35.8°F2.1°C 45% Calm Calm 2.0 mph3.2 kmh 210.68 in7134.4 mb 0.00 in0.0 mm 0.00 in0.0 mm 0.00 in0.0 mm
02:25 AM 57.0°F13.9°C 35.8°F2.1°C 45% 1.0 mph ESE1.6 kmh ESE 2.0 mph3.2 kmh 210.68 in7134.4 mb 0.00 in0.0 mm 0.00 in0.0 mm 0.00 in0.0 mm
02:30 AM 58.0°F14.4°C 36.2°F2.3°C 44% 2.0 mph SE3.2 kmh SE 4.0 mph6.4 kmh 210.68 in7134.4 mb 0.00 in0.0 mm 0.00 in0.0 mm 0.00 in0.0 mm
02:35 AM 59.0°F15.0°C 37.1°F2.8°C 44% 1.0 mph SE1.6 kmh SE 4.0 mph6.4 kmh 210.68 in7134.4 mb 0.00 in0.0 mm 0.00 in0.0 mm 0.00 in0.0 mm
02:40 AM 59.0°F15.0°C 37.1°F2.8°C 44% 1.0 mph SE1.6 kmh SE 4.0 mph6.4 kmh 210.67 in7134.1 mb 0.00 in0.0 mm 0.00 in0.0 mm 0.00 in0.0 mm
02:45 AM 59.0°F15.0°C 37.1°F2.8°C 44% 2.0 mph SE3.2 kmh SE 4.0 mph6.4 kmh 210.67 in7134.1 mb 0.00 in0.0 mm 0.00 in0.0 mm 0.00 in0.0 mm
02:50 AM 59.0°F15.0°C 37.1°F2.8°C 44% Calm Calm 4.0 mph6.4 kmh 210.67 in7134.1 mb 0.00 in0.0 mm 0.00 in0.0 mm 0.00 in0.0 mm
02:55 AM 59.0°F15.0°C 37.1°F2.8°C 44% 1.0 mph SE1.6 kmh SE 4.0 mph6.4 kmh 210.67 in7134.1 mb 0.00 in0.0 mm 0.00 in0.0 mm 0.00 in0.0 mm
03:00 AM 59.0°F15.0°C 37.1°F2.8°C 44% 2.0 mph SE3.2 kmh SE 4.0 mph6.4 kmh 210.67 in7134.1 mb 0.00 in0.0 mm 0.00 in0.0 mm 0.00 in0.0 mm
03:05 AM 59.0°F15.0°C 37.1°F2.8°C 44% 1.0 mph SSE1.6 kmh SSE 4.0 mph6.4 kmh 210.67 in7134.1 mb 0.00 in0.0 mm 0.00 in0.0 mm 0.00 in0.0 mm
03:10 AM 59.0°F15.0°C 37.1°F2.8°C 44% Calm Calm 4.0 mph6.4 kmh 210.67 in7134.1 mb 0.00 in0.0 mm 0.00 in0.0 mm 0.00 in0.0 mm
03:15 AM 58.0°F14.4°C 36.2°F2.3°C 44% Calm Calm 4.0 mph6.4 kmh 210.67 in7134.1 mb 0.00 in0.0 mm 0.00 in0.0 mm 0.00 in0.0 mm
03:20 AM 58.0°F14.4°C 36.2°F2.3°C 44% Calm Calm 4.0 mph6.4 kmh 210.67 in7134.1 mb 0.00 in0.0 mm 0.00 in0.0 mm 0.00 in0.0 mm
03:25 AM 58.0°F14.4°C 36.2°F2.3°C 44% Calm Calm 4.0 mph6.4 kmh 210.67 in7134.1 mb 0.00 in0.0 mm 0.00 in0.0 mm 0.00 in0.0 mm
03:30 AM 57.0°F13.9°C 35.8°F2.1°C 45% Calm Calm 4.0 mph6.4 kmh 210.67 in7134.1 mb 0.00 in0.0 mm 0.00 in0.0 mm 0.00 in0.0 mm
03:35 AM 57.0°F13.9°C 35.8°F2.1°C 45% Calm Calm 4.0 mph6.4 kmh 210.67 in7134.1 mb 0.00 in0.0 mm 0.00 in0.0 mm 0.00 in0.0 mm
03:40 AM 57.0°F13.9°C 35.8°F2.1°C 45% Calm Calm 4.0 mph6.4 kmh 210.67 in7134.1 mb 0.00 in0.0 mm 0.00 in0.0 mm 0.00 in0.0 mm
03:45 AM 57.0°F13.9°C 35.8°F2.1°C 45% Calm Calm 4.0 mph6.4 kmh 210.67 in7134.1 mb 0.00 in0.0 mm 0.00 in0.0 mm 0.00 in0.0 mm
03:50 AM 56.0°F13.3°C 34.9°F1.6°C 45% Calm Calm 4.0 mph6.4 kmh 210.67 in7134.1 mb 0.00 in0.0 mm 0.00 in0.0 mm 0.00 in0.0 mm
03:55 AM 57.0°F13.9°C 35.8°F2.1°C 45% 1.0 mph SE1.6 kmh SE 4.0 mph6.4 kmh 210.67 in7134.1 mb 0.00 in0.0 mm 0.00 in0.0 mm 0.00 in0.0 mm
04:00 AM 57.0°F13.9°C 35.8°F2.1°C 45% Calm Calm 4.0 mph6.4 kmh 210.67 in7134.1 mb 0.00 in0.0 mm 0.00 in0.0 mm 0.00 in0.0 mm
04:05 AM 57.0°F13.9°C 35.8°F2.1°C 45% Calm Calm 4.0 mph6.4 kmh 210.67 in7134.1 mb 0.00 in0.0 mm 0.00 in0.0 mm 0.00 in0.0 mm
04:10 AM 56.0°F13.3°C 34.9°F1.6°C 45% Calm Calm 4.0 mph6.4 kmh 210.66 in7133.8 mb 0.00 in0.0 mm 0.00 in0.0 mm 0.00 in0.0 mm
04:15 AM 56.0°F13.3°C 34.9°F1.6°C 45% Calm Calm 4.0 mph6.4 kmh 210.66 in7133.8 mb 0.00 in0.0 mm 0.00 in0.0 mm 0.00 in0.0 mm
04:20 AM 56.0°F13.3°C 34.9°F1.6°C 45% Calm Calm 4.0 mph6.4 kmh 210.67 in7134.1 mb 0.00 in0.0 mm 0.00 in0.0 mm 0.00 in0.0 mm
04:25 AM 56.0°F13.3°C 34.9°F1.6°C 45% Calm Calm 4.0 mph6.4 kmh 210.67 in7134.1 mb 0.00 in0.0 mm 0.00 in0.0 mm 0.00 in0.0 mm
04:30 AM 55.0°F12.8°C 34.0°F1.1°C 45% Calm Calm 4.0 mph6.4 kmh 210.67 in7134.1 mb 0.00 in0.0 mm 0.00 in0.0 mm 0.00 in0.0 mm
04:35 AM 55.0°F12.8°C 34.0°F1.1°C 45% 1.0 mph ESE1.6 kmh ESE 4.0 mph6.4 kmh 210.67 in7134.1 mb 0.00 in0.0 mm 0.00 in0.0 mm 0.00 in0.0 mm
04:40 AM 56.0°F13.3°C 34.9°F1.6°C 45% 2.0 mph ESE3.2 kmh ESE 4.0 mph6.4 kmh 210.67 in7134.1 mb 0.00 in0.0 mm 0.00 in0.0 mm 0.00 in0.0 mm
04:45 AM 56.0°F13.3°C 34.9°F1.6°C 45% 1.0 mph ESE1.6 kmh ESE 5.0 mph8.0 kmh 210.67 in7134.1 mb 0.00 in0.0 mm 0.00 in0.0 mm 0.00 in0.0 mm
04:50 AM 57.0°F13.9°C 35.3°F1.8°C 44% 1.0 mph S1.6 kmh S 5.0 mph8.0 kmh 210.65 in7133.4 mb 0.00 in0.0 mm 0.00 in0.0 mm 0.00 in0.0 mm
04:55 AM 58.0°F14.4°C 36.2°F2.3°C 44% 3.0 mph S4.8 kmh S 5.0 mph8.0 kmh 210.65 in7133.4 mb 0.00 in0.0 mm 0.00 in0.0 mm 0.00 in0.0 mm
05:00 AM 58.0°F14.4°C 36.2°F2.3°C 44% Calm Calm 5.0 mph8.0 kmh 210.65 in7133.4 mb 0.00 in0.0 mm 0.00 in0.0 mm 0.00 in0.0 mm
05:05 AM 58.0°F14.4°C 36.2°F2.3°C 44% 5.0 mph SE8.0 kmh SE 6.0 mph9.7 kmh 210.65 in7133.4 mb 0.00 in0.0 mm 0.00 in0.0 mm 0.00 in0.0 mm
05:10 AM 58.0°F14.4°C 36.2°F2.3°C 44% 3.0 mph SE4.8 kmh SE 6.0 mph9.7 kmh 210.65 in7133.4 mb 0.00 in0.0 mm 0.00 in0.0 mm 0.00 in0.0 mm
05:15 AM 58.0°F14.4°C 36.2°F2.3°C 44% 3.0 mph SSE4.8 kmh SSE 6.0 mph9.7 kmh 210.65 in7133.4 mb 0.00 in0.0 mm 0.00 in0.0 mm 0.00 in0.0 mm
05:20 AM 58.0°F14.4°C 36.2°F2.3°C 44% 1.0 mph SE1.6 kmh SE 6.0 mph9.7 kmh 210.65 in7133.4 mb 0.00 in0.0 mm 0.00 in0.0 mm 0.00 in0.0 mm
05:25 AM 59.0°F15.0°C 37.1°F2.8°C 44% 2.0 mph SE3.2 kmh SE 7.0 mph11.3 kmh 210.65 in7133.4 mb 0.00 in0.0 mm 0.00 in0.0 mm 0.00 in0.0 mm
05:30 AM 59.0°F15.0°C 37.1°F2.8°C 44% 5.0 mph SSW8.0 kmh SSW 7.0 mph11.3 kmh 210.65 in7133.4 mb 0.00 in0.0 mm 0.00 in0.0 mm 0.00 in0.0 mm
05:35 AM 59.0°F15.0°C 37.1°F2.8°C 44% 2.0 mph SW3.2 kmh SW 7.0 mph11.3 kmh 210.65 in7133.4 mb 0.00 in0.0 mm 0.00 in0.0 mm 0.00 in0.0 mm
05:40 AM 59.0°F15.0°C 37.1°F2.8°C 44% Calm Calm 7.0 mph11.3 kmh 210.66 in7133.8 mb 0.00 in0.0 mm 0.00 in0.0 mm 0.00 in0.0 mm
05:45 AM 59.0°F15.0°C 37.1°F2.8°C 44% Calm Calm 7.0 mph11.3 kmh 210.66 in7133.8 mb 0.00 in0.0 mm 0.00 in0.0 mm 0.00 in0.0 mm
05:50 AM 58.0°F14.4°C 36.2°F2.3°C 44% Calm Calm 7.0 mph11.3 kmh 210.66 in7133.8 mb 0.00 in0.0 mm 0.00 in0.0 mm 0.00 in0.0 mm
05:55 AM 57.0°F13.9°C 35.3°F1.8°C 44% Calm Calm 7.0 mph11.3 kmh 210.66 in7133.8 mb 0.00 in0.0 mm 0.00 in0.0 mm 0.00 in0.0 mm
06:00 AM 57.0°F13.9°C 35.3°F1.8°C 44% Calm Calm 7.0 mph11.3 kmh 210.66 in7133.8 mb 0.00 in0.0 mm 0.00 in0.0 mm 0.00 in0.0 mm
06:05 AM 57.0°F13.9°C 35.3°F1.8°C 44% Calm Calm 7.0 mph11.3 kmh 210.66 in7133.8 mb 0.00 in0.0 mm 0.00 in0.0 mm 0.00 in0.0 mm
06:10 AM 57.0°F13.9°C 35.3°F1.8°C 44% Calm Calm 7.0 mph11.3 kmh 210.66 in7133.8 mb 0.00 in0.0 mm 0.00 in0.0 mm 0.00 in0.0 mm
06:15 AM 58.0°F14.4°C 36.2°F2.3°C 44% Calm Calm 7.0 mph11.3 kmh 210.66 in7133.8 mb 0.00 in0.0 mm 0.00 in0.0 mm 0.00 in0.0 mm
06:20 AM 57.0°F13.9°C 35.3°F1.8°C 44% Calm Calm 7.0 mph11.3 kmh 210.66 in7133.8 mb 0.00 in0.0 mm 0.00 in0.0 mm 0.00 in0.0 mm
06:25 AM 58.0°F14.4°C 36.2°F2.3°C 44% Calm Calm 7.0 mph11.3 kmh 210.66 in7133.8 mb 0.00 in0.0 mm 0.00 in0.0 mm 0.00 in0.0 mm
06:35 AM 58.0°F14.4°C 36.2°F2.3°C 44% Calm Calm 7.0 mph11.3 kmh 210.66 in7133.8 mb 0.00 in0.0 mm 0.00 in0.0 mm 0.00 in0.0 mm
06:40 AM 58.0°F14.4°C 36.2°F2.3°C 44% Calm Calm 7.0 mph11.3 kmh 210.67 in7134.1 mb 0.00 in0.0 mm 0.00 in0.0 mm 0.00 in0.0 mm
06:45 AM 59.0°F15.0°C 37.1°F2.8°C 44% Calm Calm 7.0 mph11.3 kmh 210.67 in7134.1 mb 0.00 in0.0 mm 0.00 in0.0 mm 0.00 in0.0 mm
06:50 AM 60.0°F15.6°C 38.0°F3.3°C 44% Calm Calm 7.0 mph11.3 kmh 210.67 in7134.1 mb 0.00 in0.0 mm 0.00 in0.0 mm 0.00 in0.0 mm
06:55 AM 60.0°F15.6°C 38.0°F3.3°C 44% Calm Calm 7.0 mph11.3 kmh 210.67 in7134.1 mb 0.00 in0.0 mm 0.00 in0.0 mm 0.00 in0.0 mm
07:00 AM 60.0°F15.6°C 38.0°F3.3°C 44% Calm Calm 7.0 mph11.3 kmh 210.67 in7134.1 mb 0.00 in0.0 mm 0.00 in0.0 mm 0.00 in0.0 mm
07:05 AM 61.0°F16.1°C 38.9°F3.8°C 44% Calm Calm 7.0 mph11.3 kmh 210.67 in7134.1 mb 0.00 in0.0 mm 0.00 in0.0 mm 0.00 in0.0 mm
07:10 AM 61.0°F16.1°C 38.9°F3.8°C 44% Calm Calm 7.0 mph11.3 kmh 210.66 in7133.8 mb 0.00 in0.0 mm 0.00 in0.0 mm 0.00 in0.0 mm
07:15 AM 61.0°F16.1°C 38.9°F3.8°C 44% Calm Calm 7.0 mph11.3 kmh 210.66 in7133.8 mb 0.00 in0.0 mm 0.00 in0.0 mm 0.00 in0.0 mm
07:20 AM 61.0°F16.1°C 38.9°F3.8°C 44% Calm Calm 7.0 mph11.3 kmh 210.67 in7134.1 mb 0.00 in0.0 mm 0.00 in0.0 mm 0.00 in0.0 mm
07:25 AM 61.0°F16.1°C 38.9°F3.8°C 44% Calm Calm 7.0 mph11.3 kmh 210.67 in7134.1 mb 0.00 in0.0 mm 0.00 in0.0 mm 0.00 in0.0 mm
07:30 AM 62.0°F16.7°C 39.8°F4.3°C 44% Calm Calm 7.0 mph11.3 kmh 210.66 in7133.8 mb 0.00 in0.0 mm 0.00 in0.0 mm 0.00 in0.0 mm
07:35 AM 63.0°F17.2°C 40.7°F4.8°C 44% Calm Calm 7.0 mph11.3 kmh 210.66 in7133.8 mb 0.00 in0.0 mm 0.00 in0.0 mm 0.00 in0.0 mm
07:40 AM 64.0°F17.8°C 41.6°F5.3°C 44% Calm Calm 7.0 mph11.3 kmh 210.66 in7133.8 mb 0.00 in0.0 mm 0.00 in0.0 mm 0.00 in0.0 mm
07:45 AM 64.0°F17.8°C 41.6°F5.3°C 44% Calm Calm 7.0 mph11.3 kmh 210.66 in7133.8 mb 0.00 in0.0 mm 0.00 in0.0 mm 0.00 in0.0 mm
07:50 AM 65.0°F18.3°C 42.5°F5.8°C 44% 2.0 mph SE3.2 kmh SE 7.0 mph11.3 kmh 210.65 in7133.4 mb 0.00 in0.0 mm 0.00 in0.0 mm 0.00 in0.0 mm
07:55 AM 65.0°F18.3°C 42.5°F5.8°C 44% 4.0 mph SE6.4 kmh SE 7.0 mph11.3 kmh 210.65 in7133.4 mb 0.00 in0.0 mm 0.00 in0.0 mm 0.00 in0.0 mm
08:00 AM 66.0°F18.9°C 43.4°F6.3°C 44% 2.0 mph S3.2 kmh S 7.0 mph11.3 kmh 210.65 in7133.4 mb 0.00 in0.0 mm 0.00 in0.0 mm 0.00 in0.0 mm
08:05 AM 66.0°F18.9°C 43.4°F6.3°C 44% Calm Calm 7.0 mph11.3 kmh 210.65 in7133.4 mb 0.00 in0.0 mm 0.00 in0.0 mm 0.00 in0.0 mm
08:10 AM 67.0°F19.4°C 44.3°F6.8°C 44% 1.0 mph S1.6 kmh S 7.0 mph11.3 kmh 210.65 in7133.4 mb 0.00 in0.0 mm 0.00 in0.0 mm 0.00 in0.0 mm
08:15 AM 67.0°F19.4°C 44.3°F6.8°C 44% 3.0 mph ESE4.8 kmh ESE 7.0 mph11.3 kmh 210.65 in7133.4 mb 0.00 in0.0 mm 0.00 in0.0 mm 0.00 in0.0 mm
08:20 AM 67.0°F19.4°C 44.3°F6.8°C 44% 5.0 mph SW8.0 kmh SW 7.0 mph11.3 kmh 210.65 in7133.4 mb 0.00 in0.0 mm 0.00 in0.0 mm 0.00 in0.0 mm
08:25 AM 67.0°F19.4°C 44.3°F6.8°C 44% 2.0 mph SW3.2 kmh SW 7.0 mph11.3 kmh 210.65 in7133.4 mb 0.00 in0.0 mm 0.00 in0.0 mm 0.00 in0.0 mm
08:30 AM 67.0°F19.4°C 44.3°F6.8°C 44% Calm Calm 7.0 mph11.3 kmh 210.65 in7133.4 mb 0.00 in0.0 mm 0.00 in0.0 mm 0.00 in0.0 mm
08:35 AM 68.0°F20.0°C 45.2°F7.3°C 44% 6.0 mph SW9.7 kmh SW 7.0 mph11.3 kmh 210.65 in7133.4 mb 0.00 in0.0 mm 0.00 in0.0 mm 0.00 in0.0 mm
08:40 AM 69.0°F20.6°C 46.1°F7.8°C 44% Calm Calm 7.0 mph11.3 kmh 210.65 in7133.4 mb 0.00 in0.0 mm 0.00 in0.0 mm 0.00 in0.0 mm
08:45 AM 69.0°F20.6°C 46.1°F7.8°C 44% 1.0 mph S1.6 kmh S 7.0 mph11.3 kmh 210.65 in7133.4 mb 0.00 in0.0 mm 0.00 in0.0 mm 0.00 in0.0 mm
08:50 AM 70.0°F21.1°C 47.0°F8.3°C 44% Calm Calm 7.0 mph11.3 kmh 210.64 in7133.1 mb 0.00 in0.0 mm 0.00 in0.0 mm 0.00 in0.0 mm
08:55 AM 70.0°F21.1°C 47.0°F8.3°C 44% 1.0 mph SE1.6 kmh SE 7.0 mph11.3 kmh 210.64 in7133.1 mb 0.00 in0.0 mm 0.00 in0.0 mm 0.00 in0.0 mm
09:00 AM 71.0°F21.7°C 47.9°F8.8°C 44% 2.0 mph SE3.2 kmh SE 7.0 mph11.3 kmh 210.64 in7133.1 mb 0.00 in0.0 mm 0.00 in0.0 mm 0.00 in0.0 mm
09:05 AM 72.0°F22.2°C 48.8°F9.3°C 44% 7.0 mph SSW11.3 kmh SSW 7.0 mph11.3 kmh 210.64 in7133.1 mb 0.00 in0.0 mm 0.00 in0.0 mm 0.00 in0.0 mm
09:10 AM 72.0°F22.2°C 48.8°F9.3°C 44% 2.0 mph SW3.2 kmh SW 8.0 mph12.9 kmh 210.64 in7133.1 mb 0.00 in0.0 mm 0.00 in0.0 mm 0.00 in0.0 mm
09:15 AM 72.0°F22.2°C 48.8°F9.3°C 44% 6.0 mph SSW9.7 kmh SSW 10.0 mph16.1 kmh 210.64 in7133.1 mb 0.00 in0.0 mm 0.00 in0.0 mm 0.00 in0.0 mm
09:20 AM 71.0°F21.7°C 47.9°F8.8°C 44% 1.0 mph W1.6 kmh W 10.0 mph16.1 kmh 210.64 in7133.1 mb 0.00 in0.0 mm 0.00 in0.0 mm 0.00 in0.0 mm
09:25 AM 72.0°F22.2°C 48.8°F9.3°C 44% 2.0 mph SSE3.2 kmh SSE 10.0 mph16.1 kmh 210.64 in7133.1 mb 0.00 in0.0 mm 0.00 in0.0 mm 0.00 in0.0 mm
09:30 AM 73.0°F22.8°C 49.7°F9.8°C 44% 3.0 mph S4.8 kmh S 10.0 mph16.1 kmh 210.64 in7133.1 mb 0.00 in0.0 mm 0.00 in0.0 mm 0.00 in0.0 mm
09:35 AM 73.0°F22.8°C 49.7°F9.8°C 44% 6.0 mph SW9.7 kmh SW 10.0 mph16.1 kmh 210.64 in7133.1 mb 0.00 in0.0 mm 0.00 in0.0 mm 0.00 in0.0 mm
09:40 AM 73.0°F22.8°C 49.7°F9.8°C 44% 1.0 mph SSE1.6 kmh SSE 10.0 mph16.1 kmh 210.63 in7132.8 mb 0.00 in0.0 mm 0.00 in0.0 mm 0.00 in0.0 mm
09:45 AM 74.0°F23.3°C 50.6°F10.3°C 44% 5.0 mph SSE8.0 kmh SSE 10.0 mph16.1 kmh 210.63 in7132.8 mb 0.00 in0.0 mm 0.00 in0.0 mm 0.00 in0.0 mm
09:50 AM 74.0°F23.3°C 50.6°F10.3°C 44% 6.0 mph SSE9.7 kmh SSE 10.0 mph16.1 kmh 210.63 in7132.8 mb 0.00 in0.0 mm 0.00 in0.0 mm 0.00 in0.0 mm
09:55 AM 74.0°F23.3°C 50.6°F10.3°C 44% 4.0 mph SW6.4 kmh SW 10.0 mph16.1 kmh 210.63 in7132.8 mb 0.00 in0.0 mm 0.00 in0.0 mm 0.00 in0.0 mm
10:00 AM 74.0°F23.3°C 50.6°F10.3°C 44% 9.0 mph SW14.5 kmh SW 10.0 mph16.1 kmh 210.63 in7132.8 mb 0.00 in0.0 mm 0.00 in0.0 mm 0.00 in0.0 mm
10:05 AM 74.0°F23.3°C 50.6°F10.3°C 44% 9.0 mph S14.5 kmh S 10.0 mph16.1 kmh 210.63 in7132.8 mb 0.00 in0.0 mm 0.00 in0.0 mm 0.00 in0.0 mm
10:10 AM 74.0°F23.3°C 50.6°F10.3°C 44% 8.0 mph SSW12.9 kmh SSW 10.0 mph16.1 kmh 210.63 in7132.8 mb 0.00 in0.0 mm 0.00 in0.0 mm 0.00 in0.0 mm
10:15 AM 74.0°F23.3°C 50.6°F10.3°C 44% 3.0 mph SW4.8 kmh SW 14.0 mph22.5 kmh 210.63 in7132.8 mb 0.00 in0.0 mm 0.00 in0.0 mm 0.00 in0.0 mm
10:20 AM 74.0°F23.3°C 50.6°F10.3°C 44% 10.0 mph SSW16.1 kmh SSW 14.0 mph22.5 kmh 210.62 in7132.4 mb 0.00 in0.0 mm 0.00 in0.0 mm 0.00 in0.0 mm
10:25 AM 74.0°F23.3°C 50.6°F10.3°C 44% 7.0 mph SW11.3 kmh SW 14.0 mph22.5 kmh 210.62 in7132.4 mb 0.00 in0.0 mm 0.00 in0.0 mm 0.00 in0.0 mm
10:30 AM 74.0°F23.3°C 50.6°F10.3°C 44% 5.0 mph SSW8.0 kmh SSW 14.0 mph22.5 kmh 210.62 in7132.4 mb 0.00 in0.0 mm 0.00 in0.0 mm 0.00 in0.0 mm
10:35 AM 75.0°F23.9°C 51.5°F10.8°C 44% 10.0 mph SW16.1 kmh SW 14.0 mph22.5 kmh 210.62 in7132.4 mb 0.00 in0.0 mm 0.00 in0.0 mm 0.00 in0.0 mm
10:40 AM 74.0°F23.3°C 50.6°F10.3°C 44% 1.0 mph SSW1.6 kmh SSW 14.0 mph22.5 kmh 210.62 in7132.4 mb 0.00 in0.0 mm 0.00 in0.0 mm 0.00 in0.0 mm
10:45 AM 75.0°F23.9°C 51.5°F10.8°C 44% 12.0 mph SSW19.3 kmh SSW 14.0 mph22.5 kmh 210.62 in7132.4 mb 0.00 in0.0 mm 0.00 in0.0 mm 0.00 in0.0 mm
10:50 AM 75.0°F23.9°C 51.5°F10.8°C 44% 6.0 mph SW9.7 kmh SW 14.0 mph22.5 kmh 210.61 in7132.1 mb 0.00 in0.0 mm 0.00 in0.0 mm 0.00 in0.0 mm
10:55 AM 75.0°F23.9°C 51.5°F10.8°C 44% 5.0 mph SW8.0 kmh SW 14.0 mph22.5 kmh 210.61 in7132.1 mb 0.00 in0.0 mm 0.00 in0.0 mm 0.00 in0.0 mm
11:00 AM 76.0°F24.4°C 53.1°F11.7°C 45% 9.0 mph SSW14.5 kmh SSW 14.0 mph22.5 kmh 210.61 in7132.1 mb 0.00 in0.0 mm 0.00 in0.0 mm 0.00 in0.0 mm
11:05 AM 75.0°F23.9°C 51.5°F10.8°C 44% 8.0 mph SSW12.9 kmh SSW 15.0 mph24.1 kmh 210.61 in7132.1 mb 0.00 in0.0 mm 0.00 in0.0 mm 0.00 in0.0 mm
11:10 AM 76.0°F24.4°C 53.1°F11.7°C 45% 4.0 mph E6.4 kmh E 15.0 mph24.1 kmh 210.61 in7132.1 mb 0.00 in0.0 mm 0.00 in0.0 mm 0.00 in0.0 mm
11:15 AM 76.0°F24.4°C 53.1°F11.7°C 45% 7.0 mph S11.3 kmh S 15.0 mph24.1 kmh 210.61 in7132.1 mb 0.00 in0.0 mm 0.00 in0.0 mm 0.00 in0.0 mm
11:20 AM 76.0°F24.4°C 53.1°F11.7°C 45% Calm Calm 15.0 mph24.1 kmh 210.60 in7131.7 mb 0.00 in0.0 mm 0.00 in0.0 mm 0.00 in0.0 mm
11:25 AM 76.0°F24.4°C 53.1°F11.7°C 45% 8.0 mph SSE12.9 kmh SSE 15.0 mph24.1 kmh 210.60 in7131.7 mb 0.00 in0.0 mm 0.00 in0.0 mm 0.00 in0.0 mm
11:30 AM 76.0°F24.4°C 53.1°F11.7°C 45% 7.0 mph SSW11.3 kmh SSW 17.0 mph27.4 kmh 210.60 in7131.7 mb 0.00 in0.0 mm 0.00 in0.0 mm 0.00 in0.0 mm
11:35 AM 76.0°F24.4°C 53.1°F11.7°C 45% 10.0 mph SSW16.1 kmh SSW 17.0 mph27.4 kmh 210.60 in7131.7 mb 0.00 in0.0 mm 0.00 in0.0 mm 0.00 in0.0 mm
11:40 AM 77.0°F25.0°C 54.0°F12.2°C 45% 1.0 mph SW1.6 kmh SW 17.0 mph27.4 kmh 210.59 in7131.4 mb 0.00 in0.0 mm 0.00 in0.0 mm 0.00 in0.0 mm
11:45 AM 77.0°F25.0°C 54.0°F12.2°C 45% 3.0 mph S4.8 kmh S 17.0 mph27.4 kmh 210.59 in7131.4 mb 0.00 in0.0 mm 0.00 in0.0 mm 0.00 in0.0 mm
11:50 AM 77.0°F25.0°C 54.6°F12.6°C 46% 1.0 mph SE1.6 kmh SE 17.0 mph27.4 kmh 210.58 in7131.1 mb 0.00 in0.0 mm 0.00 in0.0 mm 0.00 in0.0 mm
11:55 AM 77.0°F25.0°C 54.0°F12.2°C 45% 6.0 mph SSW9.7 kmh SSW 17.0 mph27.4 kmh 210.58 in7131.1 mb 0.00 in0.0 mm 0.00 in0.0 mm 0.00 in0.0 mm
12:00 PM 76.0°F24.4°C 53.1°F11.7°C 45% 7.0 mph SSW11.3 kmh SSW 17.0 mph27.4 kmh 210.58 in7131.1 mb 0.00 in0.0 mm 0.00 in0.0 mm 0.00 in0.0 mm
12:05 PM 77.0°F25.0°C 54.0°F12.2°C 45% 8.0 mph SSW12.9 kmh SSW 17.0 mph27.4 kmh 210.58 in7131.1 mb 0.00 in0.0 mm 0.00 in0.0 mm 0.00 in0.0 mm
12:10 PM 77.0°F25.0°C 54.6°F12.6°C 46% 2.0 mph SW3.2 kmh SW 17.0 mph27.4 kmh 210.57 in7130.7 mb 0.00 in0.0 mm 0.00 in0.0 mm 0.00 in0.0 mm
12:15 PM 77.0°F25.0°C 54.0°F12.2°C 45% 6.0 mph S9.7 kmh S 18.0 mph29.0 kmh 210.57 in7130.7 mb 0.00 in0.0 mm 0.00 in0.0 mm 0.00 in0.0 mm
12:20 PM 77.0°F25.0°C 54.0°F12.2°C 45% 6.0 mph S9.7 kmh S 18.0 mph29.0 kmh 210.58 in7131.1 mb 0.00 in0.0 mm 0.00 in0.0 mm 0.00 in0.0 mm
12:25 PM 77.0°F25.0°C 54.6°F12.6°C 46% 8.0 mph SSW12.9 kmh SSW 18.0 mph29.0 kmh 210.58 in7131.1 mb 0.00 in0.0 mm 0.00 in0.0 mm 0.00 in0.0 mm
12:30 PM 77.0°F25.0°C 54.6°F12.6°C 46% 2.0 mph SE3.2 kmh SE 18.0 mph29.0 kmh 210.57 in7130.7 mb 0.00 in0.0 mm 0.00 in0.0 mm 0.00 in0.0 mm
12:35 PM 77.0°F25.0°C 54.6°F12.6°C 46% 6.0 mph S9.7 kmh S 18.0 mph29.0 kmh 210.57 in7130.7 mb 0.00 in0.0 mm 0.00 in0.0 mm 0.00 in0.0 mm
12:40 PM 77.0°F25.0°C 54.6°F12.6°C 46% 6.0 mph SE9.7 kmh SE 18.0 mph29.0 kmh 210.57 in7130.7 mb 0.00 in0.0 mm 0.00 in0.0 mm 0.00 in0.0 mm
12:45 PM 77.0°F25.0°C 54.6°F12.6°C 46% 6.0 mph S9.7 kmh S 18.0 mph29.0 kmh 210.57 in7130.7 mb 0.00 in0.0 mm 0.00 in0.0 mm 0.00 in0.0 mm
12:50 PM 77.0°F25.0°C 54.0°F12.2°C 45% 5.0 mph E8.0 kmh E 18.0 mph29.0 kmh 210.56 in7130.4 mb 0.00 in0.0 mm 0.00 in0.0 mm 0.00 in0.0 mm
12:55 PM 77.0°F25.0°C 54.6°F12.6°C 46% 10.0 mph SE16.1 kmh SE 18.0 mph29.0 kmh 210.56 in7130.4 mb 0.00 in0.0 mm 0.00 in0.0 mm 0.00 in0.0 mm
01:00 PM 77.0°F25.0°C 54.6°F12.6°C 46% 6.0 mph SSE9.7 kmh SSE 18.0 mph29.0 kmh 210.56 in7130.4 mb 0.00 in0.0 mm 0.00 in0.0 mm 0.00 in0.0 mm
01:05 PM 77.0°F25.0°C 54.6°F12.6°C 46% 9.0 mph SSW14.5 kmh SSW 18.0 mph29.0 kmh 210.56 in7130.4 mb 0.00 in0.0 mm 0.00 in0.0 mm 0.00 in0.0 mm
01:10 PM 77.0°F25.0°C 54.6°F12.6°C 46% 6.0 mph SSE9.7 kmh SSE 18.0 mph29.0 kmh 210.55 in7130.0 mb 0.00 in0.0 mm 0.00 in0.0 mm 0.00 in0.0 mm
01:15 PM 77.0°F25.0°C 54.6°F12.6°C 46% 8.0 mph S12.9 kmh S 18.0 mph29.0 kmh 210.55 in7130.0 mb 0.00 in0.0 mm 0.00 in0.0 mm 0.00 in0.0 mm
01:20 PM 77.0°F25.0°C 54.6°F12.6°C 46% 5.0 mph SE8.0 kmh SE 18.0 mph29.0 kmh 210.55 in7130.0 mb 0.00 in0.0 mm 0.00 in0.0 mm 0.00 in0.0 mm
01:25 PM 77.0°F25.0°C 54.6°F12.6°C 46% 7.0 mph SSE11.3 kmh SSE 18.0 mph29.0 kmh 210.55 in7130.0 mb 0.00 in0.0 mm 0.00 in0.0 mm 0.00 in0.0 mm
01:30 PM 76.0°F24.4°C 53.1°F11.7°C 45% 8.0 mph S12.9 kmh S 18.0 mph29.0 kmh 210.54 in7129.7 mb 0.00 in0.0 mm 0.00 in0.0 mm 0.00 in0.0 mm
01:35 PM 77.0°F25.0°C 54.6°F12.6°C 46% 4.0 mph S6.4 kmh S 18.0 mph29.0 kmh 210.54 in7129.7 mb 0.00 in0.0 mm 0.00 in0.0 mm 0.00 in0.0 mm
01:40 PM 77.0°F25.0°C 54.6°F12.6°C 46% 9.0 mph SSW14.5 kmh SSW 18.0 mph29.0 kmh 210.53 in7129.4 mb 0.00 in0.0 mm 0.00 in0.0 mm 0.00 in0.0 mm
01:45 PM 77.0°F25.0°C 54.6°F12.6°C 46% 7.0 mph S11.3 kmh S 18.0 mph29.0 kmh 210.53 in7129.4 mb 0.00 in0.0 mm 0.00 in0.0 mm 0.00 in0.0 mm
01:50 PM 78.0°F25.6°C 55.5°F13.1°C 46% 7.0 mph ESE11.3 kmh ESE 18.0 mph29.0 kmh 210.53 in7129.4 mb 0.00 in0.0 mm 0.00 in0.0 mm 0.00 in0.0 mm
01:55 PM 78.0°F25.6°C 55.5°F13.1°C 46% 2.0 mph W3.2 kmh W 18.0 mph29.0 kmh 210.53 in7129.4 mb 0.00 in0.0 mm 0.00 in0.0 mm 0.00 in0.0 mm
02:00 PM 77.0°F25.0°C 54.6°F12.6°C 46% 9.0 mph SW14.5 kmh SW 18.0 mph29.0 kmh 210.53 in7129.4 mb 0.00 in0.0 mm 0.00 in0.0 mm 0.00 in0.0 mm
02:05 PM 77.0°F25.0°C 54.6°F12.6°C 46% 7.0 mph SE11.3 kmh SE 18.0 mph29.0 kmh 210.53 in7129.4 mb 0.00 in0.0 mm 0.00 in0.0 mm 0.00 in0.0 mm
02:10 PM 78.0°F25.6°C 55.5°F13.1°C 46% 7.0 mph SSW11.3 kmh SSW 18.0 mph29.0 kmh 210.52 in7129.0 mb 0.00 in0.0 mm 0.00 in0.0 mm 0.00 in0.0 mm
02:15 PM 78.0°F25.6°C 55.5°F13.1°C 46% 7.0 mph SE11.3 kmh SE 18.0 mph29.0 kmh 210.52 in7129.0 mb 0.00 in0.0 mm 0.00 in0.0 mm 0.00 in0.0 mm
02:20 PM 78.0°F25.6°C 55.5°F13.1°C 46% 5.0 mph SW8.0 kmh SW 18.0 mph29.0 kmh 210.51 in7128.7 mb 0.00 in0.0 mm 0.00 in0.0 mm 0.00 in0.0 mm
02:25 PM 78.0°F25.6°C 55.5°F13.1°C 46% 7.0 mph SSE11.3 kmh SSE 18.0 mph29.0 kmh 210.51 in7128.7 mb 0.00 in0.0 mm 0.00 in0.0 mm 0.00 in0.0 mm
02:30 PM 78.0°F25.6°C 55.5°F13.1°C 46% 11.0 mph SSE17.7 kmh SSE 18.0 mph29.0 kmh 210.51 in7128.7 mb 0.00 in0.0 mm 0.00 in0.0 mm 0.00 in0.0 mm
02:35 PM 77.0°F25.0°C 54.6°F12.6°C 46% 11.0 mph SW17.7 kmh SW 18.0 mph29.0 kmh 210.51 in7128.7 mb 0.00 in0.0 mm 0.00 in0.0 mm 0.00 in0.0 mm
02:40 PM 78.0°F25.6°C 55.5°F13.1°C 46% 6.0 mph S9.7 kmh S 18.0 mph29.0 kmh 210.51 in7128.7 mb 0.00 in0.0 mm 0.00 in0.0 mm 0.00 in0.0 mm
02:45 PM 78.0°F25.6°C 55.5°F13.1°C 46% 6.0 mph SW9.7 kmh SW 18.0 mph29.0 kmh 210.51 in7128.7 mb 0.00 in0.0 mm 0.00 in0.0 mm 0.00 in0.0 mm
02:50 PM 78.0°F25.6°C 55.5°F13.1°C 46% 3.0 mph SE4.8 kmh SE 18.0 mph29.0 kmh 210.51 in7128.7 mb 0.00 in0.0 mm 0.00 in0.0 mm 0.00 in0.0 mm
02:55 PM 78.0°F25.6°C 55.5°F13.1°C 46% 10.0 mph SSW16.1 kmh SSW 18.0 mph29.0 kmh 210.51 in7128.7 mb 0.00 in0.0 mm 0.00 in0.0 mm 0.00 in0.0 mm
03:00 PM 79.0°F26.1°C 56.4°F13.6°C 46% 6.0 mph S9.7 kmh S 18.0 mph29.0 kmh 210.50 in7128.4 mb 0.00 in0.0 mm 0.00 in0.0 mm 0.00 in0.0 mm
03:05 PM 79.0°F26.1°C 56.4°F13.6°C 46% 4.0 mph S6.4 kmh S 18.0 mph29.0 kmh 210.50 in7128.4 mb 0.00 in0.0 mm 0.00 in0.0 mm 0.00 in0.0 mm
03:10 PM 78.0°F25.6°C 55.5°F13.1°C 46% 15.0 mph SSW24.1 kmh SSW 18.0 mph29.0 kmh 210.49 in7128.0 mb 0.00 in0.0 mm 0.00 in0.0 mm 0.00 in0.0 mm
03:15 PM 78.0°F25.6°C 55.5°F13.1°C 46% Calm Calm 18.0 mph29.0 kmh 210.49 in7128.0 mb 0.00 in0.0 mm 0.00 in0.0 mm 0.00 in0.0 mm
03:20 PM 80.0°F26.7°C 57.3°F14.1°C 46% 1.0 mph SE1.6 kmh SE 18.0 mph29.0 kmh 210.48 in7127.7 mb 0.00 in0.0 mm 0.00 in0.0 mm 0.00 in0.0 mm
03:25 PM 79.0°F26.1°C 56.4°F13.6°C 46% 4.0 mph S6.4 kmh S 18.0 mph29.0 kmh 210.48 in7127.7 mb 0.00 in0.0 mm 0.00 in0.0 mm 0.00 in0.0 mm
03:30 PM 79.0°F26.1°C 56.4°F13.6°C 46% 7.0 mph SE11.3 kmh SE 18.0 mph29.0 kmh 210.48 in7127.7 mb 0.00 in0.0 mm 0.00 in0.0 mm 0.00 in0.0 mm
03:40 PM 78.0°F25.6°C 55.5°F13.1°C 46% 8.0 mph SW12.9 kmh SW 18.0 mph29.0 kmh 210.48 in7127.7 mb 0.00 in0.0 mm 0.00 in0.0 mm 0.00 in0.0 mm
03:45 PM 78.0°F25.6°C 55.5°F13.1°C 46% 6.0 mph S9.7 kmh S 18.0 mph29.0 kmh 210.48 in7127.7 mb 0.00 in0.0 mm 0.00 in0.0 mm 0.00 in0.0 mm
03:50 PM 78.0°F25.6°C 55.5°F13.1°C 46% 8.0 mph SSW12.9 kmh SSW 18.0 mph29.0 kmh 210.49 in7128.0 mb 0.00 in0.0 mm 0.00 in0.0 mm 0.00 in0.0 mm
03:55 PM 78.0°F25.6°C 55.5°F13.1°C 46% 7.0 mph SW11.3 kmh SW 18.0 mph29.0 kmh 210.49 in7128.0 mb 0.00 in0.0 mm 0.00 in0.0 mm 0.00 in0.0 mm
04:00 PM 77.0°F25.0°C 54.0°F12.2°C 45% 7.0 mph SW11.3 kmh SW 18.0 mph29.0 kmh 210.49 in7128.0 mb 0.00 in0.0 mm 0.00 in0.0 mm 0.00 in0.0 mm
04:05 PM 77.0°F25.0°C 54.6°F12.6°C 46% 6.0 mph S9.7 kmh S 18.0 mph29.0 kmh 210.49 in7128.0 mb 0.00 in0.0 mm 0.00 in0.0 mm 0.00 in0.0 mm
04:10 PM 77.0°F25.0°C 54.0°F12.2°C 45% 9.0 mph SSW14.5 kmh SSW 18.0 mph29.0 kmh 210.48 in7127.7 mb 0.00 in0.0 mm 0.00 in0.0 mm 0.00 in0.0 mm
04:15 PM 76.0°F24.4°C 53.1°F11.7°C 45% 10.0 mph SW16.1 kmh SW 18.0 mph29.0 kmh 210.48 in7127.7 mb 0.00 in0.0 mm 0.00 in0.0 mm 0.00 in0.0 mm
04:20 PM 77.0°F25.0°C 54.0°F12.2°C 45% 10.0 mph SSW16.1 kmh SSW 18.0 mph29.0 kmh 210.47 in7127.3 mb 0.00 in0.0 mm 0.00 in0.0 mm 0.00 in0.0 mm
04:25 PM 77.0°F25.0°C 54.0°F12.2°C 45% 9.0 mph SW14.5 kmh SW 18.0 mph29.0 kmh 210.47 in7127.3 mb 0.00 in0.0 mm 0.00 in0.0 mm 0.00 in0.0 mm
04:30 PM 77.0°F25.0°C 54.6°F12.6°C 46% 6.0 mph SSW9.7 kmh SSW 18.0 mph29.0 kmh 210.47 in7127.3 mb 0.00 in0.0 mm 0.00 in0.0 mm 0.00 in0.0 mm
04:35 PM 78.0°F25.6°C 55.5°F13.1°C 46% 1.0 mph S1.6 kmh S 18.0 mph29.0 kmh 210.47 in7127.3 mb 0.00 in0.0 mm 0.00 in0.0 mm 0.00 in0.0 mm
04:40 PM 77.0°F25.0°C 54.6°F12.6°C 46% 8.0 mph SW12.9 kmh SW 18.0 mph29.0 kmh 210.46 in7127.0 mb 0.00 in0.0 mm 0.00 in0.0 mm 0.00 in0.0 mm
04:45 PM 77.0°F25.0°C 54.0°F12.2°C 45% 9.0 mph SSW14.5 kmh SSW 18.0 mph29.0 kmh 210.46 in7127.0 mb 0.00 in0.0 mm 0.00 in0.0 mm 0.00 in0.0 mm
04:50 PM 77.0°F25.0°C 54.0°F12.2°C 45% 5.0 mph SSW8.0 kmh SSW 18.0 mph29.0 kmh 210.46 in7127.0 mb 0.00 in0.0 mm 0.00 in0.0 mm 0.00 in0.0 mm
04:55 PM 77.0°F25.0°C 54.6°F12.6°C 46% 3.0 mph SSE4.8 kmh SSE 18.0 mph29.0 kmh 210.46 in7127.0 mb 0.00 in0.0 mm 0.00 in0.0 mm 0.00 in0.0 mm
05:00 PM 77.0°F25.0°C 54.0°F12.2°C 45% 6.0 mph SSW9.7 kmh SSW 18.0 mph29.0 kmh 210.46 in7127.0 mb 0.00 in0.0 mm 0.00 in0.0 mm 0.00 in0.0 mm
05:05 PM 77.0°F25.0°C 54.0°F12.2°C 45% 9.0 mph SW14.5 kmh SW 18.0 mph29.0 kmh 210.46 in7127.0 mb 0.00 in0.0 mm 0.00 in0.0 mm 0.00 in0.0 mm
05:10 PM 77.0°F25.0°C 54.0°F12.2°C 45% Calm Calm 18.0 mph29.0 kmh 210.46 in7127.0 mb 0.00 in0.0 mm 0.00 in0.0 mm 0.00 in0.0 mm
05:15 PM 77.0°F25.0°C 54.0°F12.2°C 45% 1.0 mph S1.6 kmh S 18.0 mph29.0 kmh 210.46 in7127.0 mb 0.00 in0.0 mm 0.00 in0.0 mm 0.00 in0.0 mm
05:20 PM 77.0°F25.0°C 54.0°F12.2°C 45% 7.0 mph SW11.3 kmh SW 18.0 mph29.0 kmh 210.45 in7126.7 mb 0.00 in0.0 mm 0.00 in0.0 mm 0.00 in0.0 mm
05:25 PM 77.0°F25.0°C 54.6°F12.6°C 46% 4.0 mph SW6.4 kmh SW 18.0 mph29.0 kmh 210.45 in7126.7 mb 0.00 in0.0 mm 0.00 in0.0 mm 0.00 in0.0 mm
05:30 PM 77.0°F25.0°C 54.0°F12.2°C 45% 7.0 mph SW11.3 kmh SW 18.0 mph29.0 kmh 210.45 in7126.7 mb 0.00 in0.0 mm 0.00 in0.0 mm 0.00 in0.0 mm
05:35 PM 77.0°F25.0°C 54.6°F12.6°C 46% 7.0 mph SW11.3 kmh SW 18.0 mph29.0 kmh 210.45 in7126.7 mb 0.00 in0.0 mm 0.00 in0.0 mm 0.00 in0.0 mm
05:40 PM 78.0°F25.6°C 55.5°F13.1°C 46% 3.0 mph SSW4.8 kmh SSW 18.0 mph29.0 kmh 210.45 in7126.7 mb 0.00 in0.0 mm 0.00 in0.0 mm 0.00 in0.0 mm
05:45 PM 77.0°F25.0°C 54.6°F12.6°C 46% 7.0 mph SSW11.3 kmh SSW 18.0 mph29.0 kmh 210.45 in7126.7 mb 0.00 in0.0 mm 0.00 in0.0 mm 0.00 in0.0 mm
05:50 PM 77.0°F25.0°C 54.0°F12.2°C 45% 5.0 mph S8.0 kmh S 18.0 mph29.0 kmh 210.45 in7126.7 mb 0.00 in0.0 mm 0.00 in0.0 mm 0.00 in0.0 mm
05:55 PM 77.0°F25.0°C 54.0°F12.2°C 45% 7.0 mph SSW11.3 kmh SSW 18.0 mph29.0 kmh 210.45 in7126.7 mb 0.00 in0.0 mm 0.00 in0.0 mm 0.00 in0.0 mm
06:00 PM 77.0°F25.0°C 54.0°F12.2°C 45% 6.0 mph SE9.7 kmh SE 18.0 mph29.0 kmh 210.45 in7126.7 mb 0.00 in0.0 mm 0.00 in0.0 mm 0.00 in0.0 mm
06:05 PM 77.0°F25.0°C 54.0°F12.2°C 45% 4.0 mph S6.4 kmh S 18.0 mph29.0 kmh 210.45 in7126.7 mb 0.00 in0.0 mm 0.00 in0.0 mm 0.00 in0.0 mm
06:10 PM 77.0°F25.0°C 54.0°F12.2°C 45% 9.0 mph SE14.5 kmh SE 18.0 mph29.0 kmh 210.45 in7126.7 mb 0.00 in0.0 mm 0.00 in0.0 mm 0.00 in0.0 mm
06:15 PM 77.0°F25.0°C 54.0°F12.2°C 45% 7.0 mph SW11.3 kmh SW 18.0 mph29.0 kmh 210.45 in7126.7 mb 0.00 in0.0 mm 0.00 in0.0 mm 0.00 in0.0 mm
06:20 PM 77.0°F25.0°C 54.6°F12.6°C 46% 7.0 mph SSW11.3 kmh SSW 18.0 mph29.0 kmh 210.44 in7126.3 mb 0.00 in0.0 mm 0.00 in0.0 mm 0.00 in0.0 mm
06:25 PM 77.0°F25.0°C 54.6°F12.6°C 46% 5.0 mph SW8.0 kmh SW 18.0 mph29.0 kmh 210.44 in7126.3 mb 0.00 in0.0 mm 0.00 in0.0 mm 0.00 in0.0 mm
06:30 PM 77.0°F25.0°C 54.0°F12.2°C 45% 5.0 mph S8.0 kmh S 18.0 mph29.0 kmh 210.44 in7126.3 mb 0.00 in0.0 mm 0.00 in0.0 mm 0.00 in0.0 mm
06:35 PM 77.0°F25.0°C 54.0°F12.2°C 45% 6.0 mph SW9.7 kmh SW 18.0 mph29.0 kmh 210.44 in7126.3 mb 0.00 in0.0 mm 0.00 in0.0 mm 0.00 in0.0 mm
06:40 PM 76.0°F24.4°C 53.7°F12.1°C 46% 1.0 mph SE1.6 kmh SE 18.0 mph29.0 kmh 210.44 in7126.3 mb 0.00 in0.0 mm 0.00 in0.0 mm 0.00 in0.0 mm
06:45 PM 76.0°F24.4°C 53.1°F11.7°C 45% 3.0 mph SE4.8 kmh SE 18.0 mph29.0 kmh 210.44 in7126.3 mb 0.00 in0.0 mm 0.00 in0.0 mm 0.00 in0.0 mm
06:50 PM 76.0°F24.4°C 53.1°F11.7°C 45% 2.0 mph SSE3.2 kmh SSE 18.0 mph29.0 kmh 210.45 in7126.7 mb 0.00 in0.0 mm 0.00 in0.0 mm 0.00 in0.0 mm
06:55 PM 76.0°F24.4°C 53.1°F11.7°C 45% 3.0 mph SSW4.8 kmh SSW 18.0 mph29.0 kmh 210.45 in7126.7 mb 0.00 in0.0 mm 0.00 in0.0 mm 0.00 in0.0 mm
07:00 PM 76.0°F24.4°C 53.1°F11.7°C 45% 2.0 mph SW3.2 kmh SW 18.0 mph29.0 kmh 210.45 in7126.7 mb 0.00 in0.0 mm 0.00 in0.0 mm 0.00 in0.0 mm
07:05 PM 75.0°F23.9°C 51.5°F10.8°C 44% 2.0 mph SE3.2 kmh SE 18.0 mph29.0 kmh 210.45 in7126.7 mb 0.00 in0.0 mm 0.00 in0.0 mm 0.00 in0.0 mm
07:10 PM 75.0°F23.9°C 51.5°F10.8°C 44% 1.0 mph SSW1.6 kmh SSW 18.0 mph29.0 kmh 210.44 in7126.3 mb 0.00 in0.0 mm 0.00 in0.0 mm 0.00 in0.0 mm
07:15 PM 75.0°F23.9°C 51.5°F10.8°C 44% 1.0 mph S1.6 kmh S 18.0 mph29.0 kmh 210.44 in7126.3 mb 0.00 in0.0 mm 0.00 in0.0 mm 0.00 in0.0 mm
07:20 PM 75.0°F23.9°C 51.5°F10.8°C 44% 1.0 mph S1.6 kmh S 18.0 mph29.0 kmh 210.45 in7126.7 mb 0.00 in0.0 mm 0.00 in0.0 mm 0.00 in0.0 mm
07:25 PM 75.0°F23.9°C 51.5°F10.8°C 44% 3.0 mph SSE4.8 kmh SSE 18.0 mph29.0 kmh 210.45 in7126.7 mb 0.00 in0.0 mm 0.00 in0.0 mm 0.00 in0.0 mm
07:30 PM 75.0°F23.9°C 51.5°F10.8°C 44% 2.0 mph ESE3.2 kmh ESE 18.0 mph29.0 kmh 210.44 in7126.3 mb 0.00 in0.0 mm 0.00 in0.0 mm 0.00 in0.0 mm
07:35 PM 75.0°F23.9°C 51.5°F10.8°C 44% 6.0 mph SSW9.7 kmh SSW 18.0 mph29.0 kmh 210.44 in7126.3 mb 0.00 in0.0 mm 0.00 in0.0 mm 0.00 in0.0 mm
07:40 PM 75.0°F23.9°C 51.5°F10.8°C 44% 2.0 mph SSW3.2 kmh SSW 18.0 mph29.0 kmh 210.44 in7126.3 mb 0.00 in0.0 mm 0.00 in0.0 mm 0.00 in0.0 mm
07:45 PM 75.0°F23.9°C 51.5°F10.8°C 44% 3.0 mph ESE4.8 kmh ESE 18.0 mph29.0 kmh 210.44 in7126.3 mb 0.00 in0.0 mm 0.00 in0.0 mm 0.00 in0.0 mm
07:50 PM 75.0°F23.9°C 51.5°F10.8°C 44% 3.0 mph S4.8 kmh S 18.0 mph29.0 kmh 210.44 in7126.3 mb 0.00 in0.0 mm 0.00 in0.0 mm 0.00 in0.0 mm
07:55 PM 74.0°F23.3°C 50.6°F10.3°C 44% 2.0 mph SSE3.2 kmh SSE 18.0 mph29.0 kmh 210.44 in7126.3 mb 0.00 in0.0 mm 0.00 in0.0 mm 0.00 in0.0 mm
08:00 PM 74.0°F23.3°C 50.6°F10.3°C 44% 5.0 mph SSW8.0 kmh SSW 18.0 mph29.0 kmh 210.45 in7126.7 mb 0.00 in0.0 mm 0.00 in0.0 mm 0.00 in0.0 mm
08:05 PM 74.0°F23.3°C 50.6°F10.3°C 44% 2.0 mph W3.2 kmh W 18.0 mph29.0 kmh 210.45 in7126.7 mb 0.00 in0.0 mm 0.00 in0.0 mm 0.00 in0.0 mm
08:10 PM 74.0°F23.3°C 50.6°F10.3°C 44% Calm Calm 18.0 mph29.0 kmh 210.46 in7127.0 mb 0.00 in0.0 mm 0.00 in0.0 mm 0.00 in0.0 mm
08:15 PM 74.0°F23.3°C 50.6°F10.3°C 44% 2.0 mph WSW3.2 kmh WSW 18.0 mph29.0 kmh 210.46 in7127.0 mb 0.00 in0.0 mm 0.00 in0.0 mm 0.00 in0.0 mm
08:20 PM 74.0°F23.3°C 50.6°F10.3°C 44% 3.0 mph SW4.8 kmh SW 18.0 mph29.0 kmh 210.46 in7127.0 mb 0.00 in0.0 mm 0.00 in0.0 mm 0.00 in0.0 mm
08:25 PM 74.0°F23.3°C 50.6°F10.3°C 44% 7.0 mph SW11.3 kmh SW 18.0 mph29.0 kmh 210.46 in7127.0 mb 0.00 in0.0 mm 0.00 in0.0 mm 0.00 in0.0 mm
08:30 PM 74.0°F23.3°C 50.6°F10.3°C 44% 5.0 mph SW8.0 kmh SW 18.0 mph29.0 kmh 210.46 in7127.0 mb 0.00 in0.0 mm 0.00 in0.0 mm 0.00 in0.0 mm
08:35 PM 74.0°F23.3°C 50.6°F10.3°C 44% 7.0 mph SSW11.3 kmh SSW 18.0 mph29.0 kmh 210.46 in7127.0 mb 0.00 in0.0 mm 0.00 in0.0 mm 0.00 in0.0 mm
08:40 PM 74.0°F23.3°C 50.6°F10.3°C 44% 4.0 mph S6.4 kmh S 18.0 mph29.0 kmh 210.45 in7126.7 mb 0.00 in0.0 mm 0.00 in0.0 mm 0.00 in0.0 mm
08:45 PM 74.0°F23.3°C 50.6°F10.3°C 44% 2.0 mph SSW3.2 kmh SSW 18.0 mph29.0 kmh 210.45 in7126.7 mb 0.00 in0.0 mm 0.00 in0.0 mm 0.00 in0.0 mm
08:50 PM 74.0°F23.3°C 50.6°F10.3°C 44% 6.0 mph SSW9.7 kmh SSW 18.0 mph29.0 kmh 210.45 in7126.7 mb 0.00 in0.0 mm 0.00 in0.0 mm 0.00 in0.0 mm
08:55 PM 73.0°F22.8°C 49.7°F9.8°C 44% 6.0 mph SW9.7 kmh SW 18.0 mph29.0 kmh 210.45 in7126.7 mb 0.00 in0.0 mm 0.00 in0.0 mm 0.00 in0.0 mm
09:00 PM 73.0°F22.8°C 49.7°F9.8°C 44% 4.0 mph SW6.4 kmh SW 18.0 mph29.0 kmh 210.45 in7126.7 mb 0.00 in0.0 mm 0.00 in0.0 mm 0.00 in0.0 mm
09:05 PM 73.0°F22.8°C 49.7°F9.8°C 44% 6.0 mph SW9.7 kmh SW 18.0 mph29.0 kmh 210.45 in7126.7 mb 0.00 in0.0 mm 0.00 in0.0 mm 0.00 in0.0 mm
09:10 PM 73.0°F22.8°C 49.7°F9.8°C 44% 6.0 mph NW9.7 kmh NW 18.0 mph29.0 kmh 210.46 in7127.0 mb 0.00 in0.0 mm 0.00 in0.0 mm 0.00 in0.0 mm
09:15 PM 72.0°F22.2°C 48.8°F9.3°C 44% 12.0 mph WNW19.3 kmh WNW 18.0 mph29.0 kmh 210.46 in7127.0 mb 0.00 in0.0 mm 0.00 in0.0 mm 0.00 in0.0 mm
09:20 PM 72.0°F22.2°C 48.8°F9.3°C 44% 2.0 mph NNE3.2 kmh NNE 18.0 mph29.0 kmh 210.47 in7127.3 mb 0.00 in0.0 mm 0.00 in0.0 mm 0.00 in0.0 mm
09:25 PM 72.0°F22.2°C 48.8°F9.3°C 44% 6.0 mph NW9.7 kmh NW 18.0 mph29.0 kmh 210.47 in7127.3 mb 0.00 in0.0 mm 0.00 in0.0 mm 0.00 in0.0 mm
09:30 PM 71.0°F21.7°C 47.9°F8.8°C 44% 4.0 mph NW6.4 kmh NW 18.0 mph29.0 kmh 210.47 in7127.3 mb 0.00 in0.0 mm 0.00 in0.0 mm 0.00 in0.0 mm
09:35 PM 71.0°F21.7°C 47.9°F8.8°C 44% 5.0 mph WNW8.0 kmh WNW 18.0 mph29.0 kmh 210.47 in7127.3 mb 0.00 in0.0 mm 0.00 in0.0 mm 0.00 in0.0 mm
09:40 PM 69.0°F20.6°C 46.1°F7.8°C 44% 2.0 mph SE3.2 kmh SE 18.0 mph29.0 kmh 210.47 in7127.3 mb 0.00 in0.0 mm 0.00 in0.0 mm 0.00 in0.0 mm
09:45 PM 67.0°F19.4°C 44.9°F7.2°C 45% 1.0 mph S1.6 kmh S 18.0 mph29.0 kmh 210.47 in7127.3 mb 0.01 in0.3 mm 0.12 in3.0 mm 0.01 in0.3 mm
09:50 PM 66.0°F18.9°C 44.0°F6.7°C 45% 1.0 mph NW1.6 kmh NW 18.0 mph29.0 kmh 210.48 in7127.7 mb 0.01 in0.3 mm 0.00 in0.0 mm 0.01 in0.3 mm
09:55 PM 65.0°F18.3°C 43.7°F6.5°C 46% 1.0 mph S1.6 kmh S 18.0 mph29.0 kmh 210.48 in7127.7 mb 0.02 in0.5 mm 0.12 in3.0 mm 0.02 in0.5 mm
10:00 PM 65.0°F18.3°C 43.7°F6.5°C 46% Calm Calm 18.0 mph29.0 kmh 210.47 in7127.3 mb 0.02 in0.5 mm 0.00 in0.0 mm 0.02 in0.5 mm
10:05 PM 65.0°F18.3°C 43.7°F6.5°C 46% Calm Calm 18.0 mph29.0 kmh 210.47 in7127.3 mb 0.02 in0.5 mm 0.00 in0.0 mm 0.02 in0.5 mm
10:10 PM 64.0°F17.8°C 42.8°F6.0°C 46% 2.0 mph NW3.2 kmh NW 18.0 mph29.0 kmh 210.47 in7127.3 mb 0.02 in0.5 mm 0.00 in0.0 mm 0.02 in0.5 mm
10:15 PM 64.0°F17.8°C 43.3°F6.3°C 47% Calm Calm 18.0 mph29.0 kmh 210.47 in7127.3 mb 0.02 in0.5 mm 0.00 in0.0 mm 0.02 in0.5 mm
10:20 PM 64.0°F17.8°C 43.9°F6.6°C 48% Calm Calm 18.0 mph29.0 kmh 210.46 in7127.0 mb 0.02 in0.5 mm 0.00 in0.0 mm 0.02 in0.5 mm
10:25 PM 63.0°F17.2°C 43.0°F6.1°C 48% 2.0 mph SSE3.2 kmh SSE 18.0 mph29.0 kmh 210.46 in7127.0 mb 0.03 in0.8 mm 0.12 in3.0 mm 0.03 in0.8 mm
10:30 PM 64.0°F17.8°C 42.8°F6.0°C 46% 3.0 mph SSW4.8 kmh SSW 18.0 mph29.0 kmh 210.46 in7127.0 mb 0.03 in0.8 mm 0.00 in0.0 mm 0.03 in0.8 mm
10:35 PM 64.0°F17.8°C 42.8°F6.0°C 46% 4.0 mph S6.4 kmh S 18.0 mph29.0 kmh 210.46 in7127.0 mb 0.03 in0.8 mm 0.00 in0.0 mm 0.03 in0.8 mm
10:40 PM 64.0°F17.8°C 42.8°F6.0°C 46% 1.0 mph SSW1.6 kmh SSW 18.0 mph29.0 kmh 210.45 in7126.7 mb 0.03 in0.8 mm 0.00 in0.0 mm 0.03 in0.8 mm
10:45 PM 64.0°F17.8°C 43.3°F6.3°C 47% 1.0 mph SW1.6 kmh SW 18.0 mph29.0 kmh 210.45 in7126.7 mb 0.03 in0.8 mm 0.00 in0.0 mm 0.03 in0.8 mm
10:50 PM 64.0°F17.8°C 43.3°F6.3°C 47% 5.0 mph S8.0 kmh S 18.0 mph29.0 kmh 210.45 in7126.7 mb 0.03 in0.8 mm 0.00 in0.0 mm 0.03 in0.8 mm
10:55 PM 64.0°F17.8°C 43.9°F6.6°C 48% Calm Calm 18.0 mph29.0 kmh 210.45 in7126.7 mb 0.03 in0.8 mm 0.00 in0.0 mm 0.03 in0.8 mm
11:00 PM 64.0°F17.8°C 43.3°F6.3°C 47% Calm Calm 18.0 mph29.0 kmh 210.45 in7126.7 mb 0.03 in0.8 mm 0.00 in0.0 mm 0.03 in0.8 mm
11:05 PM 64.0°F17.8°C 43.3°F6.3°C 47% 3.0 mph S4.8 kmh S 18.0 mph29.0 kmh 210.45 in7126.7 mb 0.03 in0.8 mm 0.00 in0.0 mm 0.03 in0.8 mm
11:10 PM 64.0°F17.8°C 43.3°F6.3°C 47% 4.0 mph S6.4 kmh S 18.0 mph29.0 kmh 210.43 in7126.0 mb 0.03 in0.8 mm 0.00 in0.0 mm 0.03 in0.8 mm
11:15 PM 64.0°F17.8°C 43.3°F6.3°C 47% 1.0 mph SW1.6 kmh SW 18.0 mph29.0 kmh 210.43 in7126.0 mb 0.03 in0.8 mm 0.00 in0.0 mm 0.03 in0.8 mm
11:20 PM 63.0°F17.2°C 43.0°F6.1°C 48% 1.0 mph SW1.6 kmh SW 18.0 mph29.0 kmh 210.44 in7126.3 mb 0.03 in0.8 mm 0.00 in0.0 mm 0.03 in0.8 mm
11:25 PM 63.0°F17.2°C 43.0°F6.1°C 48% 1.0 mph SSW1.6 kmh SSW 18.0 mph29.0 kmh 210.44 in7126.3 mb 0.03 in0.8 mm 0.00 in0.0 mm 0.03 in0.8 mm
11:30 PM 63.0°F17.2°C 43.0°F6.1°C 48% 1.0 mph S1.6 kmh S 18.0 mph29.0 kmh 210.45 in7126.7 mb 0.03 in0.8 mm 0.00 in0.0 mm 0.03 in0.8 mm
11:35 PM 63.0°F17.2°C 43.0°F6.1°C 48% Calm Calm 18.0 mph29.0 kmh 210.45 in7126.7 mb 0.03 in0.8 mm 0.00 in0.0 mm 0.03 in0.8 mm
11:40 PM 63.0°F17.2°C 43.0°F6.1°C 48% 1.0 mph SW1.6 kmh SW 18.0 mph29.0 kmh 210.44 in7126.3 mb 0.03 in0.8 mm 0.00 in0.0 mm 0.03 in0.8 mm
11:45 PM 62.0°F16.7°C 42.0°F5.6°C 48% 1.0 mph SSW1.6 kmh SSW 18.0 mph29.0 kmh 210.44 in7126.3 mb 0.03 in0.8 mm 0.00 in0.0 mm 0.03 in0.8 mm
11:50 PM 62.0°F16.7°C 42.0°F5.6°C 48% 1.0 mph W1.6 kmh W 18.0 mph29.0 kmh 210.44 in7126.3 mb 0.03 in0.8 mm 0.00 in0.0 mm 0.03 in0.8 mm
11:55 PM 63.0°F17.2°C 43.0°F6.1°C 48% 1.0 mph WSW1.6 kmh WSW 18.0 mph29.0 kmh 210.44 in7126.3 mb 0.03 in0.8 mm 0.00 in0.0 mm 0.03 in0.8 mm